Time;durP1;ratioP1;P1;durP2;ratioP2;P2;SDS_P1;SDS_P2;PMS_P1;PMS_P2;Temp;Humidity;BMP_temperature;BMP_pressure;BME280_temperature;BME280_humidity;BME280_pressure;Samples;Min_cycle;Max_cycle;Signal;HPM_P1;HPM_P2
2023/05/01 00:00:08;;;;;;;7.45;3.30;;;8.00;99.90;;;;;;5085133;28;20055;-77
2023/05/01 00:02:34;;;;;;;10.00;3.42;;;8.00;99.90;;;;;;5086455;28;20123;-76
2023/05/01 00:05:00;;;;;;;7.13;4.78;;;8.30;99.90;;;;;;5086721;28;20044;-77
2023/05/01 00:07:29;;;;;;;9.13;3.35;;;8.40;99.90;;;;;;5068903;28;20436;-77
2023/05/01 00:09:56;;;;;;;6.57;3.22;;;7.90;99.90;;;;;;5086813;28;20044;-77
2023/05/01 00:12:22;;;;;;;6.65;3.30;;;7.80;99.90;;;;;;5067663;28;20113;-77
2023/05/01 00:14:48;;;;;;;7.68;3.40;;;8.40;99.90;;;;;;5070087;28;20093;-77
2023/05/01 00:17:14;;;;;;;16.25;3.58;;;8.10;99.90;;;;;;5068498;28;20048;-76
2023/05/01 00:19:40;;;;;;;9.23;3.78;;;7.80;99.90;;;;;;5069560;28;20383;-77
2023/05/01 00:22:06;;;;;;;5.50;3.17;;;7.70;99.90;;;;;;5069347;28;20448;-77
2023/05/01 00:24:31;;;;;;;6.97;3.47;;;8.80;99.90;;;;;;5085147;28;20044;-77
2023/05/01 00:26:57;;;;;;;9.75;3.70;;;7.90;99.90;;;;;;5070367;28;20477;-77
2023/05/01 00:29:23;;;;;;;6.43;3.30;;;7.70;99.90;;;;;;5084668;28;20040;-76
2023/05/01 00:31:49;;;;;;;5.95;3.30;;;7.60;99.90;;;;;;5086713;28;20055;-77
2023/05/01 00:34:14;;;;;;;7.63;4.30;;;8.60;99.90;;;;;;5084977;28;20063;-76
2023/05/01 00:36:40;;;;;;;5.63;3.40;;;7.70;99.90;;;;;;5086269;28;20040;-77
2023/05/01 00:39:06;;;;;;;11.32;3.72;;;7.70;99.90;;;;;;5085745;28;20059;-77
2023/05/01 00:41:33;;;;;;;8.25;3.80;;;7.50;99.90;;;;;;5085117;28;20072;-77
2023/05/01 00:43:59;;;;;;;8.90;4.50;;;8.30;99.90;;;;;;5086492;28;20044;-77
2023/05/01 00:46:25;;;;;;;8.30;3.58;;;7.70;99.90;;;;;;5085775;28;20044;-76
2023/05/01 00:48:52;;;;;;;8.27;3.40;;;7.50;99.90;;;;;;5086858;28;20044;-77
2023/05/01 00:51:18;;;;;;;9.60;4.50;;;8.10;99.90;;;;;;5050988;28;20043;-76
2023/05/01 00:53:44;;;;;;;6.50;3.40;;;7.70;99.90;;;;;;5069528;28;20074;-77
2023/05/01 00:56:10;;;;;;;5.35;3.65;;;7.40;99.90;;;;;;5085698;28;20036;-77
2023/05/01 00:58:37;;;;;;;8.55;3.88;;;7.50;99.90;;;;;;5085262;28;20051;-77
2023/05/01 01:01:04;;;;;;;8.60;3.53;;;7.50;99.90;;;;;;5086641;28;20106;-77
2023/05/01 01:03:30;;;;;;;9.85;4.32;;;7.50;99.90;;;;;;5084706;28;20035;-77
2023/05/01 01:06:07;;;;;;;6.13;3.65;;;7.80;99.90;;;;;;5070033;28;20040;-77
2023/05/01 01:08:48;;;;;;;7.88;4.35;;;7.50;99.90;;;;;;5084423;28;20048;-77
2023/05/01 01:11:22;;;;;;;7.43;3.47;;;7.50;99.90;;;;;;5086053;28;20398;-77
2023/05/01 01:13:54;;;;;;;8.98;3.78;;;7.50;99.90;;;;;;5086011;28;20044;-76
2023/05/01 01:16:44;;;;;;;5.65;3.65;;;7.50;99.90;;;;;;5067156;28;20052;-76
2023/05/01 01:19:21;;;;;;;8.48;3.88;;;7.50;99.90;;;;;;5086241;28;20047;-76
2023/05/01 01:21:53;;;;;;;10.48;3.55;;;7.40;99.90;;;;;;5069084;28;20542;-77
2023/05/01 01:24:44;;;;;;;5.35;2.70;;;7.50;99.90;;;;;;5089069;28;20051;-77
2023/05/01 01:27:42;;;;;;;10.27;3.63;;;7.50;99.90;;;;;;5090006;28;20134;-76
2023/05/01 01:30:28;;;;;;;12.30;3.80;;;7.40;99.90;;;;;;5071791;28;20044;-77
2023/05/01 01:33:16;;;;;;;7.22;3.60;;;7.40;99.90;;;;;;5088269;28;20048;-77
2023/05/01 01:35:48;;;;;;;6.75;4.10;;;7.40;99.90;;;;;;5089649;28;20052;-77
2023/05/01 01:38:23;;;;;;;12.32;4.45;;;7.30;99.90;;;;;;5087387;28;20050;-77
2023/05/01 01:41:10;;;;;;;9.65;5.15;;;7.90;99.90;;;;;;5089249;28;20044;-77
2023/05/01 01:43:46;;;;;;;8.20;3.35;;;7.30;99.90;;;;;;5089054;28;20048;-77
2023/05/01 01:46:15;;;;;;;7.85;3.78;;;7.30;99.90;;;;;;5087365;28;20583;-76
2023/05/01 01:48:45;;;;;;;9.68;4.05;;;7.20;99.90;;;;;;5089886;28;20039;-77
2023/05/01 01:51:18;;;;;;;6.57;3.60;;;7.20;99.90;;;;;;5087231;28;20052;-77
2023/05/01 01:53:45;;;;;;;;;;;7.20;99.90;;;;;;5089672;28;20609;-77
2023/05/01 01:56:13;;;;;;;10.50;4.07;;;7.20;99.90;;;;;;5088509;28;19981;-77
2023/05/01 01:58:40;;;;;;;8.75;3.97;;;7.10;99.90;;;;;;5071142;28;20028;-77
2023/05/01 02:01:06;;;;;;;9.70;3.75;;;7.10;99.90;;;;;;5089131;28;20120;-76
2023/05/01 02:03:33;;;;;;;7.05;3.90;;;7.90;99.90;;;;;;5087326;28;20452;-77
2023/05/01 02:06:00;;;;;;;8.73;3.70;;;7.10;99.90;;;;;;5089466;28;20197;-76
2023/05/01 02:08:29;;;;;;;9.95;3.53;;;7.10;99.90;;;;;;5070643;28;20227;-77
2023/05/01 02:10:58;;;;;;;6.97;3.72;;;7.10;99.90;;;;;;5071689;28;20032;-77
2023/05/01 02:13:27;;;;;;;6.63;3.33;;;7.10;99.90;;;;;;5072827;28;20410;-77
2023/05/01 02:15:53;;;;;;;7.95;3.72;;;7.70;99.90;;;;;;5070065;28;20059;-77
2023/05/01 02:18:20;;;;;;;10.45;3.78;;;8.10;99.90;;;;;;5072598;28;20456;-77
2023/05/01 02:20:46;;;;;;;15.55;4.25;;;7.90;99.90;;;;;;5086398;28;20079;-77
2023/05/01 02:23:12;;;;;;;8.82;3.50;;;7.10;99.90;;;;;;5055305;28;20048;-77
2023/05/01 02:25:39;;;;;;;7.05;4.03;;;7.70;99.90;;;;;;5070369;28;20044;-77
2023/05/01 02:28:11;;;;;;;8.95;4.57;;;7.10;99.90;;;;;;5087986;28;20051;-77
2023/05/01 02:30:38;;;;;;;9.35;4.40;;;7.10;99.90;;;;;;5071256;28;20087;-77
2023/05/01 02:33:06;;;;;;;7.97;3.60;;;7.10;99.90;;;;;;5087004;28;20070;-77
2023/05/01 02:35:37;;;;;;;10.38;3.80;;;7.10;99.90;;;;;;5055077;28;20058;-76
2023/05/01 02:38:03;;;;;;;7.55;4.15;;;7.10;99.90;;;;;;5086129;28;20558;-76
2023/05/01 02:40:30;;;;;;;12.38;4.40;;;7.10;99.90;;;;;;5088484;28;20135;-76
2023/05/01 02:42:58;;;;;;;9.82;4.57;;;7.00;99.90;;;;;;5070363;28;20143;-77
2023/05/01 02:45:24;;;;;;;10.02;4.35;;;7.00;99.90;;;;;;5070853;28;20118;-77
2023/05/01 02:47:55;;;;;;;9.35;4.75;;;7.60;99.90;;;;;;5088075;28;20437;-77
2023/05/01 02:50:22;;;;;;;6.90;4.22;;;7.10;99.90;;;;;;5069481;28;20105;-77
2023/05/01 02:52:48;;;;;;;8.02;4.00;;;6.90;99.90;;;;;;5088274;28;20096;-77
2023/05/01 02:55:15;;;;;;;12.15;4.55;;;6.90;99.90;;;;;;5085699;28;20044;-77
2023/05/01 02:57:41;;;;;;;8.70;4.68;;;7.50;99.90;;;;;;5071182;28;20097;-77
2023/05/01 03:00:12;;;;;;;8.20;4.78;;;7.60;99.90;;;;;;5069639;28;20044;-77
2023/05/01 03:02:39;;;;;;;12.32;4.18;;;6.80;99.90;;;;;;5086986;28;20189;-77
2023/05/01 03:05:05;;;;;;;12.80;4.15;;;6.80;99.90;;;;;;5071381;28;20353;-77
2023/05/01 03:07:34;;;;;;;6.90;3.90;;;6.80;99.90;;;;;;5085758;28;20044;-77
2023/05/01 03:10:03;;;;;;;8.77;3.97;;;6.70;99.90;;;;;;5088422;28;20063;-77
2023/05/01 03:12:32;;;;;;;9.88;4.93;;;6.70;99.90;;;;;;5087060;28;20539;-77
2023/05/01 03:14:58;;;;;;;16.35;4.40;;;6.70;99.90;;;;;;5070531;28;20087;-77
2023/05/01 03:17:24;;;;;;;11.18;4.43;;;6.60;99.90;;;;;;5086654;28;20343;-76
2023/05/01 03:19:50;;;;;;;8.82;4.28;;;6.60;99.90;;;;;;5086678;28;20116;-77
2023/05/01 03:22:16;;;;;;;8.55;4.10;;;6.60;99.90;;;;;;5070415;28;20414;-76
2023/05/01 03:24:41;;;;;;;8.40;4.50;;;6.70;99.90;;;;;;5085379;28;20044;-77
2023/05/01 03:27:07;;;;;;;11.43;4.68;;;6.50;99.90;;;;;;5070663;28;20046;-77
2023/05/01 03:29:34;;;;;;;9.88;4.65;;;6.50;99.90;;;;;;5085755;28;20600;-77
2023/05/01 03:32:00;;;;;;;11.50;5.13;;;6.50;99.90;;;;;;5087238;28;20051;-77
2023/05/01 03:34:26;;;;;;;13.05;4.47;;;6.40;99.90;;;;;;5069073;28;20066;-77
2023/05/01 03:36:53;;;;;;;9.93;5.57;;;6.90;99.90;;;;;;5069413;28;20052;-77
2023/05/01 03:39:18;;;;;;;8.35;4.70;;;6.40;99.90;;;;;;5070457;28;20508;-77
2023/05/01 03:41:44;;;;;;;11.35;4.85;;;7.20;99.90;;;;;;5085169;28;20684;-76
2023/05/01 03:44:10;;;;;;;8.88;4.57;;;6.30;99.90;;;;;;5053461;28;20063;-76
2023/05/01 03:46:36;;;;;;;12.55;4.93;;;6.30;99.90;;;;;;5085303;28;20055;-76
2023/05/01 03:49:01;;;;;;;14.18;4.97;;;7.20;99.90;;;;;;5087274;28;20059;-76
2023/05/01 03:51:27;;;;;;;11.90;5.43;;;6.30;99.90;;;;;;5087079;28;20120;-76
2023/05/01 03:53:55;;;;;;;12.52;4.68;;;7.30;99.90;;;;;;5087799;28;20036;-76
2023/05/01 03:56:24;;;;;;;12.05;5.25;;;6.40;99.90;;;;;;5086763;28;20052;-77
2023/05/01 03:58:50;;;;;;;8.88;4.72;;;6.30;99.90;;;;;;5068504;28;20036;-76
2023/05/01 04:01:17;;;;;;;7.65;4.80;;;6.30;99.90;;;;;;5087075;28;20051;-76
2023/05/01 04:03:43;;;;;;;11.63;5.90;;;6.20;99.90;;;;;;5086035;28;20036;-76
2023/05/01 04:06:09;;;;;;;11.13;4.38;;;6.20;99.90;;;;;;5086759;28;20056;-76
2023/05/01 04:08:35;;;;;;;9.80;4.57;;;6.20;99.90;;;;;;5085192;28;20514;-77
2023/05/01 04:11:01;;;;;;;11.18;4.88;;;6.80;99.90;;;;;;5086209;28;20059;-77
2023/05/01 04:13:26;;;;;;;10.90;4.80;;;6.20;99.90;;;;;;5069593;28;20044;-76
2023/05/01 04:15:56;;;;;;;9.38;5.25;;;6.20;99.90;;;;;;5086421;28;20052;-77
2023/05/01 04:18:22;;;;;;;12.02;6.32;;;6.10;99.90;;;;;;5087062;28;20052;-77
2023/05/01 04:20:47;;;;;;;8.18;4.78;;;7.50;99.90;;;;;;5084615;28;20450;-77
2023/05/01 04:23:13;;;;;;;16.67;5.43;;;7.60;99.90;;;;;;5087028;28;20166;-76
2023/05/01 04:25:39;;;;;;;9.73;5.45;;;6.10;99.90;;;;;;5086626;28;20501;-76
2023/05/01 04:28:05;;;;;;;11.10;5.22;;;6.10;99.90;;;;;;5086288;28;20387;-76
2023/05/01 04:30:31;;;;;;;8.90;5.07;;;6.10;99.90;;;;;;5086173;28;20048;-76
2023/05/01 04:33:00;;;;;;;10.55;5.40;;;6.20;99.90;;;;;;5084585;28;20051;-77
2023/05/01 04:35:26;;;;;;;7.57;4.80;;;6.20;99.90;;;;;;5086904;28;20137;-77
2023/05/01 04:37:52;;;;;;;10.27;5.70;;;6.20;99.90;;;;;;5085484;28;20087;-76
2023/05/01 04:40:18;;;;;;;9.23;5.22;;;6.20;99.90;;;;;;5086855;28;20563;-76
2023/05/01 04:42:44;;;;;;;16.02;6.93;;;6.90;99.90;;;;;;5084754;28;20086;-76
2023/05/01 04:45:10;;;;;;;8.60;5.18;;;6.30;99.90;;;;;;5087603;28;20485;-76
2023/05/01 04:47:36;;;;;;;8.45;5.15;;;6.30;99.90;;;;;;5087775;28;20170;-76
2023/05/01 04:50:02;;;;;;;6.75;4.60;;;6.40;99.90;;;;;;5084947;28;20071;-76
2023/05/01 04:52:27;;;;;;;9.82;4.93;;;6.40;99.90;;;;;;5053065;28;20094;-76
2023/05/01 04:54:54;;;;;;;10.65;5.03;;;6.50;99.90;;;;;;5034641;28;20132;-76
2023/05/01 04:57:19;;;;;;;10.48;5.13;;;6.60;99.90;;;;;;5088205;28;20544;-76
2023/05/01 04:59:46;;;;;;;9.75;4.72;;;6.60;99.90;;;;;;5071957;28;20390;-76
2023/05/01 05:02:12;;;;;;;12.30;6.10;;;6.70;99.90;;;;;;5090211;28;20390;-76
2023/05/01 05:04:37;;;;;;;12.05;4.93;;;6.80;99.90;;;;;;5091358;28;20040;-75
2023/05/01 05:07:03;;;;;;;8.98;5.18;;;7.30;99.90;;;;;;5089916;28;20048;-77
2023/05/01 05:09:29;;;;;;;12.38;5.22;;;6.90;99.90;;;;;;5091801;28;20048;-76
2023/05/01 05:11:54;;;;;;;11.52;5.72;;;7.40;99.90;;;;;;5089306;28;20115;-78
2023/05/01 05:14:21;;;;;;;10.68;6.00;;;7.20;99.90;;;;;;5091507;28;20441;-78
2023/05/01 05:16:46;;;;;;;11.25;5.40;;;7.20;99.90;;;;;;5087803;28;20056;-77
2023/05/01 05:19:12;;;;;;;13.27;5.43;;;7.30;99.90;;;;;;5089899;28;20376;-79
2023/05/01 05:21:38;;;;;;;11.52;5.90;;;7.40;99.90;;;;;;5088893;28;20399;-78
2023/05/01 05:24:03;;;;;;;10.13;5.50;;;7.50;99.90;;;;;;5054928;28;20040;-77
2023/05/01 05:26:29;;;;;;;13.18;6.38;;;7.70;99.90;;;;;;5091000;28;20135;-77
2023/05/01 05:28:55;;;;;;;11.18;5.57;;;7.70;99.90;;;;;;5087191;28;20043;-77
2023/05/01 05:31:22;;;;;;;9.27;5.45;;;8.00;99.90;;;;;;5072772;28;20411;-79
2023/05/01 05:33:48;;;;;;;13.30;5.60;;;7.90;99.90;;;;;;5087990;28;20075;-79
2023/05/01 05:36:13;;;;;;;13.38;5.35;;;8.00;99.90;;;;;;5072223;28;20474;-79
2023/05/01 05:38:39;;;;;;;10.75;5.55;;;8.50;99.90;;;;;;5088359;28;20079;-80
2023/05/01 05:41:05;;;;;;;11.43;4.97;;;8.20;99.90;;;;;;5038519;28;20036;-79
2023/05/01 05:43:31;;;;;;;14.93;4.97;;;8.20;99.90;;;;;;5089114;28;20040;-79
2023/05/01 05:45:57;;;;;;;12.88;5.40;;;8.90;99.90;;;;;;5070652;28;20123;-79
2023/05/01 05:48:23;;;;;;;17.02;6.30;;;8.40;99.90;;;;;;5072886;28;20112;-79
2023/05/01 05:50:52;;;;;;;12.00;5.55;;;9.40;99.90;;;;;;5070287;28;20569;-78
2023/05/01 05:53:21;;;;;;;11.20;5.47;;;8.50;99.90;;;;;;5089077;28;20047;-78
2023/05/01 05:55:47;;;;;;;19.05;5.05;;;8.90;99.90;;;;;;5071263;28;20128;-77
2023/05/01 05:58:18;;;;;;;17.58;5.38;;;8.60;99.90;;;;;;5071423;28;20044;-77
2023/05/01 06:00:46;;;;;;;19.88;5.30;;;8.70;99.90;;;;;;5089292;28;20128;-78
2023/05/01 06:03:12;;;;;;;17.55;6.10;;;8.70;99.90;;;;;;5053553;28;20060;-77
2023/05/01 06:05:38;;;;;;;10.75;4.95;;;8.70;99.90;;;;;;5089087;28;20097;-77
2023/05/01 06:08:04;;;;;;;10.93;5.85;;;8.70;99.90;;;;;;5069614;28;20048;-77
2023/05/01 06:10:30;;;;;;;15.18;5.72;;;8.80;99.90;;;;;;5088835;28;20487;-77
2023/05/01 06:12:55;;;;;;;8.00;5.25;;;8.80;99.90;;;;;;5070771;28;20040;-77
2023/05/01 06:15:23;;;;;;;10.73;5.55;;;8.90;99.90;;;;;;5087271;28;20052;-78
2023/05/01 06:17:49;;;;;;;11.88;5.68;;;8.90;99.90;;;;;;5088574;28;20051;-80
2023/05/01 06:20:15;;;;;;;8.10;5.38;;;9.00;99.90;;;;;;5053044;28;20044;-76
2023/05/01 06:22:41;;;;;;;12.95;5.28;;;9.10;99.90;;;;;;5088559;28;20042;-82
2023/05/01 06:25:07;;;;;;;8.85;5.45;;;9.20;99.90;;;;;;5069279;28;20087;-80
2023/05/01 06:27:33;;;;;;;13.23;5.57;;;9.20;99.90;;;;;;5071729;28;20044;-82
2023/05/01 06:29:59;;;;;;;9.75;5.47;;;9.40;99.90;;;;;;5070206;28;20044;-78
2023/05/01 06:32:24;;;;;;;10.45;4.93;;;9.80;99.90;;;;;;5087271;28;20048;-77
2023/05/01 06:34:50;;;;;;;12.23;5.25;;;9.50;99.90;;;;;;5071104;28;20133;-77
2023/05/01 06:37:16;;;;;;;10.73;5.60;;;9.60;99.90;;;;;;5069770;28;20040;-77
2023/05/01 06:39:42;;;;;;;9.48;5.25;;;9.70;99.90;;;;;;5071525;28;20105;-77
2023/05/01 06:42:10;;;;;;;9.98;5.03;;;9.80;99.90;;;;;;5085895;28;20101;-78
2023/05/01 06:44:35;;;;;;;9.23;5.03;;;9.80;99.90;;;;;;5088163;28;20121;-78
2023/05/01 06:47:01;;;;;;;11.43;5.53;;;10.00;99.90;;;;;;5086603;28;20051;-78
2023/05/01 06:49:27;;;;;;;10.48;4.95;;;10.00;99.90;;;;;;5070329;28;20169;-78
2023/05/01 06:51:53;;;;;;;11.50;5.30;;;10.10;99.90;;;;;;5087593;28;20071;-79
2023/05/01 06:54:18;;;;;;;14.60;5.53;;;10.20;99.90;;;;;;5069093;28;20059;-77
2023/05/01 06:56:44;;;;;;;13.40;5.78;;;10.30;99.90;;;;;;5071224;28;20047;-77
2023/05/01 06:59:10;;;;;;;11.20;5.20;;;10.40;99.90;;;;;;5069155;28;20096;-77
2023/05/01 07:01:35;;;;;;;12.75;5.53;;;10.50;99.90;;;;;;5088388;28;20475;-77
2023/05/01 07:04:02;;;;;;;12.82;5.72;;;10.70;99.90;;;;;;5052768;28;20048;-77
2023/05/01 07:06:28;;;;;;;11.35;5.22;;;10.70;99.90;;;;;;5070190;28;20058;-77
2023/05/01 07:08:54;;;;;;;10.63;5.55;;;10.80;99.90;;;;;;5087481;28;20048;-77
2023/05/01 07:11:19;;;;;;;10.02;5.70;;;10.80;99.90;;;;;;5085938;28;20044;-77
2023/05/01 07:13:45;;;;;;;8.48;5.05;;;10.90;99.90;;;;;;5087721;28;20048;-77
2023/05/01 07:16:11;;;;;;;16.42;5.47;;;10.90;99.90;;;;;;5084819;28;20114;-77
2023/05/01 07:18:36;;;;;;;11.43;5.68;;;11.00;99.90;;;;;;5071121;28;20040;-78
2023/05/01 07:21:02;;;;;;;13.55;6.60;;;11.10;99.90;;;;;;5068191;28;20437;-78
2023/05/01 07:23:28;;;;;;;12.05;6.20;;;11.20;99.90;;;;;;5070496;28;20090;-78
2023/05/01 07:25:54;;;;;;;10.35;5.40;;;11.30;99.90;;;;;;5070329;28;20398;-77
2023/05/01 07:28:21;;;;;;;10.20;4.95;;;11.40;99.90;;;;;;5068994;28;20059;-77
2023/05/01 07:30:47;;;;;;;15.57;6.25;;;11.50;99.90;;;;;;5087756;28;20118;-77
2023/05/01 07:33:13;;;;;;;12.88;5.18;;;11.60;99.90;;;;;;5067996;28;20123;-77
2023/05/01 07:35:39;;;;;;;17.58;5.30;;;12.30;99.90;;;;;;5087482;28;20109;-77
2023/05/01 07:38:04;;;;;;;13.15;5.05;;;11.80;99.90;;;;;;5068605;28;20131;-77
2023/05/01 07:40:33;;;;;;;10.10;4.97;;;12.00;99.90;;;;;;5070257;28;20047;-77
2023/05/01 07:42:59;;;;;;;10.10;5.28;;;12.20;99.90;;;;;;5069798;28;20040;-77
2023/05/01 07:45:25;;;;;;;12.57;5.53;;;12.30;99.90;;;;;;5085530;28;20051;-77
2023/05/01 07:47:51;;;;;;;9.05;5.05;;;12.50;99.90;;;;;;5087376;28;20205;-77
2023/05/01 07:50:17;;;;;;;12.63;5.30;;;12.70;99.90;;;;;;5068575;28;20379;-78
2023/05/01 07:52:43;;;;;;;10.05;4.63;;;12.90;99.90;;;;;;5070762;28;20036;-77
2023/05/01 07:55:09;;;;;;;10.77;4.75;;;13.00;99.90;;;;;;5068577;28;20071;-78
2023/05/01 07:57:35;;;;;;;8.52;4.72;;;13.20;99.90;;;;;;5086597;28;20102;-77
2023/05/01 08:00:01;;;;;;;12.40;4.20;;;13.40;99.90;;;;;;5069788;28;20056;-77
2023/05/01 08:02:26;;;;;;;9.43;4.45;;;13.60;99.90;;;;;;5085269;28;20495;-79
2023/05/01 08:04:52;;;;;;;13.02;4.10;;;13.80;99.90;;;;;;5053285;28;20108;-79
2023/05/01 08:07:18;;;;;;;10.43;4.07;;;13.90;99.90;;;;;;5084592;28;20036;-79
2023/05/01 08:09:45;;;;;;;13.13;3.90;;;14.00;99.90;;;;;;5087357;28;20500;-79
2023/05/01 08:12:11;;;;;;;8.35;4.75;;;14.10;99.90;;;;;;5068283;28;20044;-78
2023/05/01 08:14:36;;;;;;;12.05;4.50;;;14.30;99.90;;;;;;5086333;28;20047;-79
2023/05/01 08:17:02;;;;;;;11.48;3.90;;;14.40;99.90;;;;;;5084543;28;20150;-79
2023/05/01 08:19:28;;;;;;;10.55;3.50;;;14.40;99.90;;;;;;5085141;28;20135;-79
2023/05/01 08:21:53;;;;;;;5.82;3.13;;;14.60;99.90;;;;;;5085465;28;20483;-79
2023/05/01 08:24:19;;;;;;;10.05;3.10;;;14.80;99.90;;;;;;5083440;28;20475;-79
2023/05/01 08:26:45;;;;;;;9.43;3.70;;;15.00;99.90;;;;;;5068335;28;20072;-79
2023/05/01 08:29:11;;;;;;;12.45;3.35;;;15.20;99.90;;;;;;5067151;28;20063;-79
2023/05/01 08:31:38;;;;;;;10.45;3.30;;;15.30;99.90;;;;;;5070918;28;20483;-79
2023/05/01 08:34:04;;;;;;;11.40;3.97;;;15.30;99.90;;;;;;5071960;28;20105;-79
2023/05/01 08:36:31;;;;;;;14.57;3.70;;;15.40;99.90;;;;;;5088635;28;20040;-79
2023/05/01 08:38:57;;;;;;;13.15;4.20;;;15.60;99.90;;;;;;5088972;28;20075;-80
2023/05/01 08:41:24;;;;;;;11.55;3.38;;;15.80;99.90;;;;;;5089524;28;20087;-80
2023/05/01 08:43:50;;;;;;;10.23;3.78;;;16.10;99.90;;;;;;5089313;28;20116;-79
2023/05/01 08:46:37;;;;;;;10.45;3.67;;;16.30;99.90;;;;;;5087853;28;20040;-79
2023/05/01 08:49:05;;;;;;;7.88;3.28;;;16.50;99.90;;;;;;5089078;28;20133;-79
2023/05/01 08:51:33;;;;;;;9.73;3.65;;;16.60;99.90;;;;;;5088836;28;20127;-79
2023/05/01 08:54:02;;;;;;;11.45;3.95;;;16.80;99.80;;;;;;5087783;28;20044;-79
2023/05/01 08:56:30;;;;;;;13.10;3.58;;;16.80;99.30;;;;;;5088922;28;20032;-79
2023/05/01 08:58:57;;;;;;;13.43;4.00;;;16.90;99.10;;;;;;5070337;28;20051;-79
2023/05/01 09:01:23;;;;;;;10.02;3.50;;;16.90;98.80;;;;;;5088846;28;20040;-81
2023/05/01 09:03:51;;;;;;;9.18;2.83;;;17.10;98.80;;;;;;5071243;28;20048;-79
2023/05/01 09:06:18;;;;;;;13.18;3.58;;;17.20;98.50;;;;;;5090124;28;20173;-79
2023/05/01 09:08:43;;;;;;;8.05;3.42;;;17.40;98.10;;;;;;5038388;28;20119;-79
2023/05/01 09:11:10;;;;;;;12.18;3.30;;;17.30;97.40;;;;;;5070827;28;20201;-81
2023/05/01 09:13:37;;;;;;;10.57;2.95;;;17.30;96.80;;;;;;5088943;28;20097;-79
2023/05/01 09:16:05;;;;;;;5.43;2.10;;;17.30;96.60;;;;;;5086407;28;20056;-78
2023/05/01 09:18:32;;;;;;;4.70;2.00;;;17.40;96.40;;;;;;5054887;28;20054;-78
2023/05/01 09:20:58;;;;;;;11.38;2.42;;;17.60;96.70;;;;;;5087815;28;20048;-80
2023/05/01 09:23:24;;;;;;;9.60;3.08;;;17.80;95.90;;;;;;5071035;28;20044;-80
2023/05/01 09:25:50;;;;;;;7.43;2.75;;;17.90;95.50;;;;;;5071531;28;20052;-81
2023/05/01 09:28:15;;;;;;;9.02;2.63;;;18.00;95.10;;;;;;5087502;28;20460;-80
2023/05/01 09:30:41;;;;;;;10.88;3.25;;;18.20;95.00;;;;;;5055018;28;20128;-82
2023/05/01 09:33:10;;;;;;;10.27;2.92;;;18.20;94.90;;;;;;5086283;28;20122;-80
2023/05/01 09:35:55;;;;;;;10.23;3.28;;;18.40;95.20;;;;;;5054880;28;20048;-80
2023/05/01 09:38:26;;;;;;;9.00;3.00;;;18.50;94.50;;;;;;5072022;28;20127;-79
2023/05/01 09:40:55;;;;;;;4.75;3.08;;;18.60;94.00;;;;;;5070221;28;20461;-80
2023/05/01 09:43:28;;;;;;;8.07;2.30;;;18.70;93.80;;;;;;5088565;28;20063;-80
2023/05/01 09:46:02;;;;;;;7.85;2.70;;;18.80;92.90;;;;;;5087425;28;20044;-80
2023/05/01 09:48:29;;;;;;;5.65;2.20;;;18.80;92.20;;;;;;5089215;28;20051;-80
2023/05/01 09:50:55;;;;;;;12.88;2.70;;;18.80;92.20;;;;;;5070520;28;20051;-79
2023/05/01 09:53:36;;;;;;;7.45;2.50;;;18.90;92.20;;;;;;5087642;28;20040;-83
2023/05/01 09:56:03;;;;;;;9.07;1.80;;;18.90;91.00;;;;;;5087140;28;20177;-78
2023/05/01 09:58:29;;;;;;;5.40;1.67;;;19.00;91.30;;;;;;5087434;28;20048;-77
2023/05/01 10:00:55;;;;;;;7.78;1.83;;;19.10;91.00;;;;;;5088141;28;20093;-77
2023/05/01 10:03:21;;;;;;;11.25;2.10;;;19.20;91.00;;;;;;5085792;28;20051;-77
2023/05/01 10:05:47;;;;;;;5.50;1.77;;;19.40;91.00;;;;;;5070966;28;20086;-78
2023/05/01 10:08:13;;;;;;;4.30;1.55;;;19.50;90.50;;;;;;5086494;28;20468;-77
2023/05/01 10:10:43;;;;;;;4.45;1.65;;;19.50;89.30;;;;;;5087159;28;20048;-77
2023/05/01 10:13:13;;;;;;;6.07;1.50;;;19.50;87.30;;;;;;5087207;28;20326;-77
2023/05/01 10:15:39;;;;;;;3.47;1.58;;;19.50;87.70;;;;;;5068927;28;20070;-77
2023/05/01 10:18:08;;;;;;;4.22;1.70;;;19.50;86.80;;;;;;5087243;28;20056;-77
2023/05/01 10:20:34;;;;;;;2.95;1.77;;;19.60;86.10;;;;;;5086116;28;20040;-76
2023/05/01 10:23:02;;;;;;;4.70;2.00;;;19.60;85.70;;;;;;5087035;28;20108;-77
2023/05/01 10:25:29;;;;;;;5.65;1.50;;;19.60;85.70;;;;;;5086810;28;20048;-77
2023/05/01 10:27:56;;;;;;;5.35;1.42;;;19.60;85.10;;;;;;5086193;28;20491;-77
2023/05/01 10:30:28;;;;;;;8.32;2.17;;;19.70;84.50;;;;;;5087303;28;20059;-77
2023/05/01 10:32:54;;;;;;;5.07;2.17;;;19.70;83.20;;;;;;5085693;28;20044;-77
2023/05/01 10:35:28;;;;;;;6.95;2.05;;;19.70;83.70;;;;;;5070174;28;20050;-77
2023/05/01 10:38:03;;;;;;;9.10;2.38;;;19.60;84.90;;;;;;5085713;28;20036;-77
2023/05/01 10:40:37;;;;;;;6.88;2.67;;;19.60;86.30;;;;;;5086772;28;20078;-76
2023/05/01 10:43:19;;;;;;;8.77;1.70;;;19.70;85.00;;;;;;5086992;28;20051;-77
2023/05/01 10:45:46;;;;;;;2.72;1.60;;;19.80;84.60;;;;;;5085085;28;20105;-79
2023/05/01 10:48:32;;;;;;;6.30;2.08;;;20.00;85.80;;;;;;5087360;28;20040;-77
2023/05/01 10:51:20;;;;;;;6.15;2.38;;;20.20;84.60;;;;;;5085854;28;20048;-77
2023/05/01 10:53:47;;;;;;;5.60;1.45;;;20.20;83.20;;;;;;5086012;28;20138;-77
2023/05/01 10:56:31;;;;;;;3.28;1.52;;;20.20;84.50;;;;;;5086219;28;20379;-77
2023/05/01 10:58:59;;;;;;;3.60;1.95;;;20.30;82.90;;;;;;5085219;28;20048;-76
2023/05/01 11:01:46;;;;;;;5.00;1.83;;;20.40;84.00;;;;;;5086174;28;20036;-77
2023/05/01 11:04:21;;;;;;;6.57;2.00;;;20.40;83.50;;;;;;5085965;28;20055;-77
2023/05/01 11:07:06;;;;;;;4.55;1.92;;;20.60;83.60;;;;;;5085306;28;20048;-78
2023/05/01 11:09:42;;;;;;;5.18;1.70;;;20.80;82.20;;;;;;5086479;28;20052;-78
2023/05/01 11:12:10;;;;;;;8.88;1.90;;;20.90;81.30;;;;;;5085653;28;20047;-78
2023/05/01 11:15:01;;;;;;;6.93;2.75;;;20.80;82.30;;;;;;5068991;28;20044;-77
2023/05/01 11:17:40;;;;;;;4.30;2.28;;;20.90;80.50;;;;;;5069227;28;20048;-78
2023/05/01 11:20:26;;;;;;;7.97;2.13;;;20.90;81.50;;;;;;5084845;28;20094;-80
2023/05/01 11:22:53;;;;;;;5.45;1.40;;;20.90;79.40;;;;;;5085786;28;20074;-78
2023/05/01 11:25:26;;;;;;;2.92;1.42;;;20.80;80.00;;;;;;5068074;28;20567;-78
2023/05/01 11:27:56;;;;;;;8.23;1.88;;;20.90;80.20;;;;;;5085273;28;20051;-78
2023/05/01 11:30:23;;;;;;;5.25;2.28;;;21.00;80.80;;;;;;5086347;28;20433;-82
2023/05/01 11:32:50;;;;;;;4.13;1.70;;;21.20;80.10;;;;;;5084253;28;20093;-79
2023/05/01 11:35:25;;;;;;;6.57;2.05;;;21.30;79.80;;;;;;5069493;28;20411;-79
2023/05/01 11:37:51;;;;;;;6.20;2.13;;;21.50;79.70;;;;;;5051964;28;20510;-79
2023/05/01 11:40:31;;;;;;;7.78;2.72;;;21.60;79.20;;;;;;5085731;28;20417;-78
2023/05/01 11:43:01;;;;;;;4.13;2.00;;;21.80;78.70;;;;;;5085873;28;20044;-78
2023/05/01 11:45:27;;;;;;;4.75;2.05;;;21.90;78.80;;;;;;5084507;28;20047;-77
2023/05/01 11:47:52;;;;;;;5.38;1.75;;;22.00;76.90;;;;;;5085617;28;20082;-77
2023/05/01 11:50:20;;;;;;;1.90;0.93;;;21.90;76.10;;;;;;5050968;28;20044;-78
2023/05/01 11:52:53;;;;;;;4.05;0.98;;;21.90;74.90;;;;;;5069099;28;20127;-78
2023/05/01 11:55:31;;;;;;;4.50;1.10;;;21.80;72.90;;;;;;5084696;28;20055;-78
2023/05/01 11:57:56;;;;;;;3.30;0.95;;;21.70;72.50;;;;;;5067655;28;20075;-77
2023/05/01 12:00:37;;;;;;;3.67;0.85;;;21.70;73.10;;;;;;5068409;28;20098;-77
2023/05/01 12:03:08;;;;;;;3.58;0.93;;;21.80;73.20;;;;;;5067254;28;20036;-77
2023/05/01 12:05:36;;;;;;;2.90;1.00;;;21.80;73.00;;;;;;5068586;28;20437;-76
2023/05/01 12:08:08;;;;;;;3.67;0.80;;;21.70;72.80;;;;;;5084470;28;20062;-77
2023/05/01 12:10:35;;;;;;;3.30;0.95;;;21.60;72.70;;;;;;5085045;28;20040;-78
2023/05/01 12:13:05;;;;;;;4.15;0.85;;;21.50;72.80;;;;;;5068459;28;20076;-77
2023/05/01 12:15:35;;;;;;;2.55;0.70;;;21.40;72.20;;;;;;5083957;28;20912;-77
2023/05/01 12:18:03;;;;;;;1.48;0.80;;;21.30;72.50;;;;;;5085180;28;20077;-77
2023/05/01 12:20:40;;;;;;;2.33;0.90;;;21.30;73.00;;;;;;5083559;28;20048;-77
2023/05/01 12:23:09;;;;;;;2.28;1.02;;;21.40;72.30;;;;;;5067860;28;20052;-78
2023/05/01 12:25:36;;;;;;;5.22;1.02;;;21.50;72.00;;;;;;5084713;28;20056;-78
2023/05/01 12:28:07;;;;;;;4.05;0.70;;;21.70;71.80;;;;;;5084339;28;20461;-78
2023/05/01 12:30:33;;;;;;;5.32;0.90;;;21.70;70.70;;;;;;5085395;28;20090;-78
2023/05/01 12:33:06;;;;;;;3.92;0.80;;;21.70;70.10;;;;;;5066750;28;20047;-78
2023/05/01 12:35:32;;;;;;;;;;;21.60;70.00;;;;;;5085853;28;20083;-78
2023/05/01 12:37:58;;;;;;;3.47;0.68;;;21.60;72.30;;;;;;5084047;28;20409;-78
2023/05/01 12:40:25;;;;;;;3.75;0.80;;;21.60;71.70;;;;;;5067891;28;20127;-78
2023/05/01 12:42:56;;;;;;;3.40;0.80;;;21.70;70.80;;;;;;5051867;28;20094;-78
2023/05/01 12:45:22;;;;;;;1.98;0.65;;;21.60;70.30;;;;;;5066834;28;20054;-78
2023/05/01 12:47:48;;;;;;;5.30;0.85;;;21.50;70.80;;;;;;5068117;28;20055;-78
2023/05/01 12:50:14;;;;;;;3.42;0.70;;;21.60;70.50;;;;;;5066662;28;20036;-78
2023/05/01 12:52:40;;;;;;;6.10;1.00;;;21.60;70.30;;;;;;5084993;28;20395;-78